Time;durP1;ratioP1;P1;durP2;ratioP2;P2;SDS_P1;SDS_P2;PMS_P1;PMS_P2;Temp;Humidity;BMP_temperature;BMP_pressure;BME280_temperature;BME280_humidity;BME280_pressure;Samples;Min_cycle;Max_cycle;Signal;HPM_P1;HPM_P2
2022/05/22 00:02:16;;;;;;;3.88;1.85;;;;;;;12.98;100.00;99869.77;714281;1174;114398;-84
2022/05/22 00:17:18;;;;;;;6.10;1.98;;;;;;;12.70;100.00;99859.48;713473;1174;114523;-83
2022/05/22 00:32:21;;;;;;;3.03;1.57;;;;;;;12.49;100.00;99876.50;713490;1174;115436;-84
2022/05/22 00:47:26;;;;;;;2.83;1.63;;;;;;;12.25;100.00;99871.14;713269;1174;115004;-84
2022/05/22 01:03:26;;;;;;;2.13;1.65;;;;;;;12.34;100.00;99864.09;713407;1174;114803;-83
2022/05/22 01:17:53;;;;;;;5.45;2.10;;;;;;;12.44;100.00;99870.88;713451;1174;114603;-84
2022/05/22 01:32:56;;;;;;;3.55;2.00;;;;;;;12.49;100.00;99878.31;713436;1174;114188;-83
2022/05/22 01:47:58;;;;;;;3.93;1.98;;;;;;;12.45;100.00;99876.98;713159;1174;114974;-85
2022/05/22 02:03:01;;;;;;;4.00;2.00;;;;;;;12.37;100.00;99883.02;713438;1174;115002;-83
2022/05/22 02:18:04;;;;;;;2.25;1.78;;;;;;;12.40;100.00;99890.59;713288;1174;114270;-84
2022/05/22 02:33:07;;;;;;;2.67;1.80;;;;;;;12.26;100.00;99888.54;713660;1174;115481;-85
2022/05/22 02:48:11;;;;;;;2.47;1.80;;;;;;;12.18;100.00;99885.88;712969;1174;114426;-84
2022/05/22 03:03:14;;;;;;;2.57;1.70;;;;;;;12.08;100.00;99892.06;713340;1174;114117;-84
2022/05/22 03:18:17;;;;;;;3.07;1.93;;;;;;;12.14;100.00;99890.61;713246;1174;115027;-85
2022/05/22 03:33:19;;;;;;;3.03;1.73;;;;;;;12.35;100.00;99890.23;713312;1174;115795;-84
2022/05/22 03:48:21;;;;;;;3.45;1.98;;;;;;;12.57;100.00;99882.80;717137;1174;114622;-84
2022/05/22 04:03:23;;;;;;;1.65;1.40;;;;;;;12.69;100.00;99889.41;715988;1174;114575;-84
2022/05/22 04:18:26;;;;;;;1.13;1.10;;;;;;;13.01;100.00;99881.78;713409;1174;114587;-84
2022/05/22 04:33:28;;;;;;;3.30;1.20;;;;;;;13.04;100.00;99891.98;713521;1174;114713;-86
2022/05/22 04:48:31;;;;;;;2.08;1.60;;;;;;;13.28;96.94;99894.67;713407;1174;115480;-85
2022/05/22 05:03:34;;;;;;;4.70;2.05;;;;;;;13.52;90.15;99889.64;713573;1174;114233;-86
2022/05/22 05:18:38;;;;;;;2.75;1.40;;;;;;;13.60;85.38;99897.54;713695;1174;114515;-87
2022/05/22 05:33:41;;;;;;;2.90;1.40;;;;;;;13.71;82.68;99909.56;714504;1174;113973;-88
2022/05/22 05:48:43;;;;;;;3.10;1.75;;;;;;;13.57;80.41;99905.78;713294;1174;114544;-86
2022/05/22 06:03:45;;;;;;;2.58;1.80;;;;;;;13.79;79.48;99923.58;713320;1174;114049;-85
2022/05/22 06:18:49;;;;;;;3.63;1.63;;;;;;;13.75;78.42;99929.33;713536;1174;114005;-86
2022/05/22 06:33:51;;;;;;;4.08;1.80;;;;;;;13.95;77.77;99948.30;713662;1174;115213;-85
2022/05/22 06:48:53;;;;;;;3.65;1.90;;;;;;;14.16;75.69;99931.95;713182;1174;114049;-87
2022/05/22 07:03:56;;;;;;;2.47;1.97;;;;;;;15.10;75.43;99929.52;713992;1174;114822;-81
2022/05/22 07:19:02;;;;;;;2.85;2.00;;;;;;;14.98;74.07;99937.00;713600;1174;114180;-73
2022/05/22 07:34:04;;;;;;;3.10;1.75;;;;;;;14.93;74.45;99935.88;713800;1174;114184;-75
2022/05/22 07:49:07;;;;;;;2.03;1.83;;;;;;;14.86;73.49;99950.75;713697;1174;114177;-75
2022/05/22 08:04:09;;;;;;;2.35;1.65;;;;;;;14.69;73.81;99945.55;713824;1174;113890;-74
2022/05/22 08:19:11;;;;;;;3.23;2.25;;;;;;;14.78;74.30;99947.16;714246;1174;114099;-82
2022/05/22 08:34:14;;;;;;;4.00;2.60;;;;;;;14.81;74.03;99954.73;716293;1174;113904;-83
2022/05/22 08:49:23;;;;;;;8.70;4.23;;;;;;;15.05;74.85;99974.11;714939;1174;114295;-87
2022/05/22 09:04:38;;;;;;;27.10;21.10;;;;;;;15.00;76.61;99971.16;714313;1174;114056;-86
2022/05/22 09:19:44;;;;;;;5.33;3.98;;;;;;;14.78;77.09;99984.13;714407;1174;115636;-83
2022/05/22 09:34:55;;;;;;;5.90;3.00;;;;;;;14.53;80.07;100003.61;714461;1174;113894;-86
2022/05/22 09:50:00;;;;;;;4.30;2.73;;;;;;;14.75;81.08;100012.68;714612;1174;115021;-82
2022/05/22 10:05:23;;;;;;;5.87;2.93;;;;;;;15.38;79.80;100003.02;714285;1174;114195;-85
2022/05/22 10:20:52;;;;;;;4.38;2.88;;;;;;;15.91;77.12;100003.20;714677;1174;114293;-84
2022/05/22 10:36:14;;;;;;;5.75;3.60;;;;;;;15.67;75.13;100003.36;716479;1173;115781;-84
2022/05/22 10:51:28;;;;;;;4.70;3.13;;;;;;;15.22;75.35;100013.69;715338;1174;114874;-84
2022/05/22 11:06:30;;;;;;;7.10;4.35;;;;;;;14.83;78.01;100033.77;715832;1174;115367;-83
2022/05/22 11:21:47;;;;;;;8.88;3.63;;;;;;;15.05;78.32;100039.34;715054;1174;115280;-86
2022/05/22 11:37:06;;;;;;;25.03;11.50;;;;;;;14.91;78.96;100043.49;713412;1174;115713;-74
2022/05/22 12:08:04;;;;;;;5.80;3.40;;;;;;;14.47;81.85;100085.10;713411;1174;115335;-74
2022/05/22 12:23:15;;;;;;;5.05;2.90;;;;;;;14.69;83.43;100093.39;713512;1174;114766;-73
2022/05/22 12:38:17;;;;;;;4.30;2.60;;;;;;;14.76;80.73;100081.15;713671;1174;114386;-74
2022/05/22 12:53:29;;;;;;;4.30;3.53;;;;;;;15.36;79.27;100080.83;713859;1174;114749;-77
2022/05/22 13:09:06;;;;;;;5.28;2.70;;;;;;;15.16;77.71;100096.27;714536;1174;114231;-75
2022/05/22 13:24:17;;;;;;;5.08;2.80;;;;;;;15.10;77.88;100101.23;713791;1174;114068;-77
2022/05/22 13:39:40;;;;;;;5.65;3.18;;;;;;;15.72;77.40;100110.24;713653;1174;115071;-76
2022/05/22 13:54:53;;;;;;;5.73;3.03;;;;;;;15.92;75.44;100096.62;713230;1174;115477;-77
2022/05/22 14:09:57;;;;;;;4.90;3.05;;;;;;;16.64;74.64;100100.69;713951;1174;114152;-76
2022/05/22 14:25:00;;;;;;;7.25;3.70;;;;;;;16.62;71.95;100094.77;713596;1174;114843;-77
2022/05/22 14:40:04;;;;;;;9.23;3.35;;;;;;;16.42;72.54;100108.50;713775;1174;115059;-76
2022/05/22 14:55:27;;;;;;;8.95;5.00;;;;;;;15.77;72.62;100115.00;713564;1174;114130;-74
2022/05/22 15:10:45;;;;;;;9.35;5.18;;;;;;;15.69;73.76;100122.98;713280;1174;115506;-74
2022/05/22 15:26:20;;;;;;;16.43;10.73;;;;;;;15.62;74.22;100123.66;713399;1174;114005;-73
2022/05/22 15:41:32;;;;;;;11.18;5.15;;;;;;;16.06;74.40;100124.13;713785;1174;115294;-74
2022/05/22 15:56:36;;;;;;;9.13;4.23;;;;;;;15.60;73.85;100122.21;713589;1174;115281;-80
2022/05/22 16:11:39;;;;;;;16.98;6.90;;;;;;;15.28;74.64;100129.24;713235;1174;114536;-79
2022/05/22 16:26:42;;;;;;;21.85;8.98;;;;;;;15.07;73.91;100140.36;713441;1174;115832;-74
2022/05/22 16:41:47;;;;;;;17.77;7.53;;;;;;;15.14;73.63;100152.73;713775;1174;115702;-77
2022/05/22 16:56:51;;;;;;;5.80;3.63;;;;;;;14.93;73.79;100163.02;714356;1174;114298;-78
2022/05/22 17:11:57;;;;;;;36.90;16.50;;;;;;;14.90;74.13;100177.38;713399;1174;114592;-74
2022/05/22 17:27:03;;;;;;;152.65;53.23;;;;;;;14.71;73.95;100175.88;713583;1177;114502;-78
2022/05/22 17:42:06;;;;;;;40.43;13.53;;;;;;;14.58;74.54;100186.07;713581;1174;115261;-75
2022/05/22 17:57:10;;;;;;;32.77;13.67;;;;;;;14.70;75.28;100181.32;713849;1177;115350;-75
2022/05/22 18:27:34;;;;;;;13.40;6.33;;;;;;;13.85;75.33;100187.56;713782;1174;115214;-74
2022/05/22 18:42:48;;;;;;;102.63;51.85;;;;;;;13.45;75.82;100205.66;713379;1174;115537;-75
2022/05/22 18:57:51;;;;;;;27.73;12.20;;;;;;;13.07;77.76;100223.48;713535;1174;115414;-77
2022/05/22 19:12:55;;;;;;;20.08;10.53;;;;;;;12.91;77.68;100232.89;713532;1174;116145;-75
2022/05/22 19:28:02;;;;;;;21.08;10.00;;;;;;;12.69;79.39;100231.54;713558;1174;114643;-75
2022/05/22 19:58:35;;;;;;;11.45;6.35;;;;;;;11.72;81.31;100240.75;714109;1174;114230;-75
2022/05/22 20:13:40;;;;;;;19.75;9.78;;;;;;;11.55;82.43;100237.10;713559;1174;115949;-74
2022/05/22 20:28:43;;;;;;;14.33;6.67;;;;;;;11.36;84.38;100254.53;713698;1174;115000;-76
2022/05/22 20:43:49;;;;;;;27.43;9.25;;;;;;;11.23;84.61;100259.27;713624;1174;115192;-79
2022/05/22 20:58:52;;;;;;;16.93;7.97;;;;;;;10.92;85.83;100268.12;713655;1174;116054;-78
2022/05/22 21:13:55;;;;;;;18.10;6.93;;;;;;;10.71;85.93;100270.05;713640;1174;114328;-79
2022/05/22 21:28:59;;;;;;;12.30;6.43;;;;;;;10.30;87.75;100262.20;713876;1174;114304;-80
2022/05/22 21:44:05;;;;;;;17.83;6.90;;;;;;;10.36;88.53;100273.97;714759;1174;114280;-79
2022/05/22 21:59:12;;;;;;;11.98;5.68;;;;;;;10.29;89.02;100265.78;714369;1174;115323;-78
2022/05/22 22:14:14;;;;;;;11.53;5.53;;;;;;;10.29;90.24;100260.54;719231;1174;115117;-78
2022/05/22 22:29:22;;;;;;;13.20;6.08;;;;;;;10.12;90.22;100270.72;725570;1174;114716;-77
2022/05/22 22:44:34;;;;;;;17.85;8.50;;;;;;;9.94;90.83;100286.22;713527;1174;115049;-78
2022/05/22 22:59:38;;;;;;;11.05;5.80;;;;;;;9.85;91.49;100276.52;713314;1174;114818;-78
2022/05/22 23:14:41;;;;;;;16.30;8.50;;;;;;;9.70;91.03;100255.09;713325;1174;113963;-79
2022/05/22 23:29:45;;;;;;;14.95;5.58;;;;;;;9.51;91.81;100260.22;713307;1167;114496;-78
2022/05/22 23:44:48;;;;;;;9.60;5.25;;;;;;;9.35;91.71;100264.11;713274;1174;114034;-77
2022/05/22 23:59:52;;;;;;;11.38;5.80;;;;;;;9.19;91.45;100263.73;713746;1174;113881;-77
